Time;durP1;ratioP1;P1;durP2;ratioP2;P2;SDS_P1;SDS_P2;PMS_P1;PMS_P2;Temp;Humidity;BMP_temperature;BMP_pressure;BME280_temperature;BME280_humidity;BME280_pressure;Samples;Min_cycle;Max_cycle;Signal;HPM_P1;HPM_P2
2022/06/09 00:01:49;;;;;;;6.43;2.72;;;;;;;16.13;78.73;95854.91;5094902;28;20027;-62
2022/06/09 00:04:26;;;;;;;3.10;2.50;;;;;;;16.12;78.87;95853.22;5094988;28;20020;-62
2022/06/09 00:07:15;;;;;;;2.95;2.50;;;;;;;16.15;79.03;95855.63;5094787;28;20032;-62
2022/06/09 00:10:05;;;;;;;2.97;2.78;;;;;;;16.15;78.82;95853.84;5094699;28;20039;-63
2022/06/09 00:12:31;;;;;;;2.90;2.70;;;;;;;16.15;78.61;95848.59;5094980;28;20028;-63
2022/06/09 00:14:57;;;;;;;6.65;3.08;;;;;;;16.16;79.02;95850.25;5094514;28;20554;-62
2022/06/09 00:17:24;;;;;;;3.38;2.70;;;;;;;16.15;79.02;95839.81;5094617;28;20058;-62
2022/06/09 00:19:50;;;;;;;3.30;3.00;;;;;;;16.17;78.98;95851.13;5094499;28;20023;-62
2022/06/09 00:22:16;;;;;;;3.13;2.55;;;;;;;16.15;79.04;95847.72;5094436;28;20028;-62
2022/06/09 00:24:41;;;;;;;3.65;2.67;;;;;;;16.17;78.77;95833.47;5094490;28;20106;-62
2022/06/09 00:27:07;;;;;;;3.25;2.55;;;;;;;16.16;79.10;95838.84;5094533;28;20024;-62
2022/06/09 00:29:32;;;;;;;5.65;2.85;;;;;;;16.16;78.93;95842.34;5094337;28;20024;-63
2022/06/09 00:31:58;;;;;;;4.00;3.00;;;;;;;16.15;78.92;95839.81;5094266;28;20520;-63
2022/06/09 00:34:23;;;;;;;5.30;3.00;;;;;;;16.17;78.95;95836.09;5094364;28;20091;-62
2022/06/09 00:36:49;;;;;;;3.63;2.97;;;;;;;16.20;78.98;95836.84;5094235;28;20462;-62
2022/06/09 00:39:14;;;;;;;3.83;2.80;;;;;;;16.26;78.88;95833.78;5094138;28;20065;-62
2022/06/09 00:41:42;;;;;;;3.92;3.08;;;;;;;16.24;78.89;95843.59;5094085;28;20012;-63
2022/06/09 00:44:14;;;;;;;2.72;2.53;;;;;;;16.19;78.82;95843.91;5094172;28;20035;-62
2022/06/09 00:46:40;;;;;;;3.95;2.58;;;;;;;16.18;78.91;95842.25;5094225;28;20085;-63
2022/06/09 00:49:16;;;;;;;4.60;3.00;;;;;;;16.17;79.25;95838.75;5093923;28;20020;-62
2022/06/09 00:51:45;;;;;;;5.85;2.58;;;;;;;16.20;78.93;95840.34;5093894;28;20058;-62
2022/06/09 00:54:18;;;;;;;2.95;2.72;;;;;;;16.23;78.83;95839.28;5093945;28;20028;-62
2022/06/09 00:56:53;;;;;;;3.35;2.88;;;;;;;16.25;78.59;95835.56;5094000;28;20043;-62
2022/06/09 00:59:21;;;;;;;4.00;2.90;;;;;;;16.26;78.59;95836.41;5093887;28;20028;-63
2022/06/09 01:01:47;;;;;;;4.45;3.15;;;;;;;16.27;78.77;95832.81;5093880;28;20047;-62
2022/06/09 01:04:17;;;;;;;4.30;2.67;;;;;;;16.30;78.56;95837.88;5093782;28;20473;-63
2022/06/09 01:06:50;;;;;;;4.38;2.80;;;;;;;16.29;78.65;95834.38;5093694;28;20389;-63
2022/06/09 01:09:19;;;;;;;3.10;2.90;;;;;;;16.26;78.65;95836.41;5093641;28;20023;-63
2022/06/09 01:11:51;;;;;;;4.72;2.78;;;;;;;16.22;79.26;95834.97;5093601;28;20028;-63
2022/06/09 01:14:20;;;;;;;3.97;3.00;;;;;;;16.20;79.01;95831.56;5093700;28;20056;-62
2022/06/09 01:16:58;;;;;;;3.30;2.70;;;;;;;16.22;79.02;95833.13;5093324;28;20048;-62
2022/06/09 01:19:55;;;;;;;3.30;2.78;;;;;;;16.23;79.00;95829.56;5093630;28;20055;-62
2022/06/09 01:22:45;;;;;;;3.20;2.88;;;;;;;16.26;79.12;95824.03;5093500;28;20039;-62
2022/06/09 01:25:33;;;;;;;3.10;2.72;;;;;;;16.25;79.02;95827.63;5093465;28;20031;-62
2022/06/09 01:28:35;;;;;;;3.38;2.67;;;;;;;16.25;78.93;95832.06;5093513;28;20036;-62
2022/06/09 01:31:11;;;;;;;4.20;3.00;;;;;;;16.24;78.95;95839.16;5093376;28;20064;-63
2022/06/09 01:34:04;;;;;;;3.38;2.78;;;;;;;16.25;78.74;95837.34;5093337;28;20024;-62
2022/06/09 01:36:35;;;;;;;3.45;3.15;;;;;;;16.25;78.65;95832.06;5093366;28;20032;-63
2022/06/09 01:39:03;;;;;;;;;;;;;;;16.28;78.79;95830.06;5093707;28;20028;-62
2022/06/09 01:41:29;;;;;;;5.90;2.92;;;;;;;16.26;78.61;95833.78;5093252;28;20273;-62
2022/06/09 01:43:56;;;;;;;4.95;3.85;;;;;;;16.25;78.74;95821.50;5093237;28;20355;-62
2022/06/09 01:46:31;;;;;;;3.70;3.30;;;;;;;16.26;78.36;95825.84;5093297;28;20468;-62
2022/06/09 01:49:05;;;;;;;4.07;3.78;;;;;;;16.22;78.72;95822.59;5092990;28;20492;-63
2022/06/09 01:51:34;;;;;;;3.60;3.30;;;;;;;16.17;78.53;95822.09;5093213;28;20028;-62
2022/06/09 01:54:09;;;;;;;3.55;3.22;;;;;;;16.10;79.13;95826.13;5093269;28;20023;-62
2022/06/09 01:56:59;;;;;;;6.43;4.00;;;;;;;16.10;79.38;95828.75;5093278;28;20030;-62
2022/06/09 01:59:32;;;;;;;4.18;3.60;;;;;;;16.11;79.81;95820.75;5093079;28;20115;-62
2022/06/09 02:02:04;;;;;;;5.15;3.25;;;;;;;16.09;80.04;95822.63;5092961;28;20028;-62
2022/06/09 02:04:37;;;;;;;4.63;4.13;;;;;;;16.10;80.45;95823.50;5093006;28;20024;-62
2022/06/09 02:07:07;;;;;;;3.70;3.40;;;;;;;16.10;80.52;95813.75;5093111;28;20412;-62
2022/06/09 02:09:34;;;;;;;4.53;4.07;;;;;;;16.13;80.51;95821.47;5095111;28;20108;-62
2022/06/09 02:12:10;;;;;;;3.55;3.25;;;;;;;16.12;80.51;95818.94;5097010;28;20016;-62
2022/06/09 02:14:37;;;;;;;3.83;3.38;;;;;;;16.16;80.43;95815.97;5097113;28;20035;-62
2022/06/09 02:17:05;;;;;;;4.75;3.40;;;;;;;16.14;80.68;95822.31;5096718;28;20056;-62
2022/06/09 02:19:31;;;;;;;3.67;3.38;;;;;;;16.20;80.43;95823.66;5096918;28;20020;-62
2022/06/09 02:21:57;;;;;;;4.13;3.53;;;;;;;16.20;80.09;95826.28;5096901;28;20449;-62
2022/06/09 02:24:23;;;;;;;3.70;3.40;;;;;;;16.16;80.00;95826.50;5096780;28;20020;-63
2022/06/09 02:26:49;;;;;;;5.88;3.25;;;;;;;16.16;79.55;95831.78;5096763;28;20399;-62
2022/06/09 02:29:15;;;;;;;4.10;3.53;;;;;;;16.16;79.81;95837.06;5096605;28;20024;-62
2022/06/09 02:31:41;;;;;;;4.07;3.67;;;;;;;16.14;80.17;95833.69;5096793;28;20461;-62
2022/06/09 02:34:07;;;;;;;5.55;3.33;;;;;;;16.14;80.21;95836.31;5096677;28;20020;-62
2022/06/09 02:36:32;;;;;;;6.35;3.72;;;;;;;16.20;80.05;95836.84;5096590;28;20012;-62
2022/06/09 02:38:58;;;;;;;4.65;3.25;;;;;;;16.23;80.16;95836.63;5096447;28;20076;-62
2022/06/09 02:41:23;;;;;;;3.38;3.08;;;;;;;16.25;79.76;95842.63;5096411;28;20113;-62
2022/06/09 02:43:51;;;;;;;5.15;3.40;;;;;;;16.26;79.57;95833.78;5096424;28;20470;-62
2022/06/09 02:46:17;;;;;;;6.70;3.33;;;;;;;16.23;79.48;95826.94;5096421;28;20074;-62
2022/06/09 02:48:42;;;;;;;7.15;3.30;;;;;;;16.24;79.44;95831.25;5096302;28;20491;-61
2022/06/09 02:51:34;;;;;;;8.07;2.92;;;;;;;16.24;79.31;95836.53;5096336;28;20024;-62
2022/06/09 02:54:04;;;;;;;4.68;3.28;;;;;;;16.26;79.42;95834.59;5096237;28;20040;-62
2022/06/09 02:56:30;;;;;;;4.55;3.58;;;;;;;16.26;79.48;95831.97;5096124;28;20583;-62
2022/06/09 02:58:56;;;;;;;3.13;2.92;;;;;;;16.27;79.65;95838.09;5096111;28;20024;-62
2022/06/09 03:01:26;;;;;;;3.67;3.38;;;;;;;16.29;79.72;95841.47;5096104;28;20028;-62
2022/06/09 03:03:52;;;;;;;3.58;2.97;;;;;;;16.33;80.05;95837.66;5096001;28;20115;-62
2022/06/09 03:06:17;;;;;;;4.25;3.20;;;;;;;16.39;80.17;95837.22;5096139;28;20127;-62
2022/06/09 03:08:43;;;;;;;5.25;3.25;;;;;;;16.45;79.87;95840.34;5095855;28;20036;-63
2022/06/09 03:11:12;;;;;;;6.15;3.15;;;;;;;16.53;79.84;95835.34;5096055;28;20478;-63
2022/06/09 03:13:43;;;;;;;3.83;3.42;;;;;;;16.57;79.75;95833.31;5095877;28;20051;-62
2022/06/09 03:16:10;;;;;;;3.45;2.85;;;;;;;16.61;79.32;95832.13;5095628;28;20056;-62
2022/06/09 03:18:36;;;;;;;3.53;3.15;;;;;;;16.60;79.77;95835.72;5095793;28;20493;-63
2022/06/09 03:21:02;;;;;;;3.75;3.45;;;;;;;16.64;79.80;95829.25;5094279;28;20031;-63
2022/06/09 03:23:28;;;;;;;3.30;3.00;;;;;;;16.75;79.77;95834.63;5095730;28;20031;-62
2022/06/09 03:25:54;;;;;;;6.85;3.00;;;;;;;16.87;79.17;95834.63;5095579;28;20024;-62
2022/06/09 03:28:19;;;;;;;4.50;3.22;;;;;;;16.95;78.90;95842.00;5095453;28;20016;-62
2022/06/09 03:30:45;;;;;;;6.85;2.90;;;;;;;17.10;78.57;95848.78;5095524;28;20024;-63
2022/06/09 03:33:10;;;;;;;3.42;3.13;;;;;;;17.25;77.94;95851.25;5095565;28;20027;-63
2022/06/09 03:35:37;;;;;;;4.05;3.20;;;;;;;17.51;77.28;95848.38;5095481;28;20024;-62
2022/06/09 03:38:04;;;;;;;3.53;3.20;;;;;;;17.77;76.04;95843.72;5095307;28;20039;-63
2022/06/09 03:40:30;;;;;;;5.70;3.10;;;;;;;18.00;74.86;95845.53;5095282;28;20031;-63
2022/06/09 03:42:57;;;;;;;5.38;2.92;;;;;;;18.23;73.82;95838.41;5095251;28;20107;-63
2022/06/09 03:45:23;;;;;;;3.50;3.20;;;;;;;18.38;72.71;95839.00;5095263;28;20502;-63
2022/06/09 03:47:49;;;;;;;4.90;2.63;;;;;;;18.59;71.98;95832.06;5095196;28;20064;-63
2022/06/09 03:50:18;;;;;;;2.58;2.35;;;;;;;18.94;71.05;95829.13;5095183;28;20377;-63
2022/06/09 03:52:44;;;;;;;3.05;2.67;;;;;;;19.34;69.76;95829.44;5095046;28;20012;-63
2022/06/09 03:55:10;;;;;;;5.63;2.65;;;;;;;19.76;68.09;95823.22;5094908;28;20046;-63
2022/06/09 03:57:35;;;;;;;2.70;2.45;;;;;;;20.18;66.58;95826.75;5095071;28;20032;-63
2022/06/09 04:00:03;;;;;;;4.00;2.67;;;;;;;20.51;65.22;95827.38;5095039;28;20033;-63
2022/06/09 04:02:28;;;;;;;4.65;2.33;;;;;;;20.84;64.13;95829.75;5094794;28;20025;-63
2022/06/09 04:04:55;;;;;;;2.63;2.42;;;;;;;21.06;63.52;95833.97;5094811;28;20062;-63
2022/06/09 04:07:20;;;;;;;3.22;2.17;;;;;;;21.23;63.04;95834.25;5094690;28;20111;-63
2022/06/09 04:09:46;;;;;;;4.38;2.42;;;;;;;21.41;62.26;95828.19;5094869;28;20108;-63
2022/06/09 04:12:12;;;;;;;2.92;2.22;;;;;;;21.63;61.50;95828.81;5094770;28;20542;-63
2022/06/09 04:14:38;;;;;;;8.85;2.35;;;;;;;21.59;61.39;95839.75;5094663;28;20032;-60
2022/06/09 04:17:04;;;;;;;4.75;2.40;;;;;;;21.49;61.69;95833.63;5094515;28;20051;-63
2022/06/09 04:19:29;;;;;;;3.10;2.28;;;;;;;21.52;61.50;95843.97;5094574;28;20073;-63
2022/06/09 04:21:55;;;;;;;3.75;2.40;;;;;;;21.50;61.66;95843.28;5094488;28;20114;-63
2022/06/09 04:24:20;;;;;;;1.90;1.80;;;;;;;21.48;62.12;95841.75;5094524;28;20024;-63
2022/06/09 04:26:46;;;;;;;6.63;2.28;;;;;;;21.49;61.96;95838.94;5094422;28;20077;-63
2022/06/09 04:29:13;;;;;;;5.97;2.10;;;;;;;21.51;62.40;95838.78;5094219;28;20070;-63
2022/06/09 04:31:41;;;;;;;5.72;2.10;;;;;;;21.61;62.58;95838.78;5093841;28;20021;-63
2022/06/09 04:34:07;;;;;;;4.70;2.50;;;;;;;21.79;62.68;95829.06;5094291;28;20031;-63
2022/06/09 04:36:33;;;;;;;6.07;2.35;;;;;;;22.13;61.50;95827.69;5094249;28;20024;-63
2022/06/09 04:38:58;;;;;;;2.42;2.22;;;;;;;22.52;59.19;95823.94;5094152;28;20039;-64
2022/06/09 04:41:24;;;;;;;7.15;2.65;;;;;;;22.72;59.14;95824.66;5094157;28;20492;-63
2022/06/09 04:43:49;;;;;;;4.32;2.30;;;;;;;22.69;58.03;95826.78;5094169;28;20028;-63
2022/06/09 04:46:19;;;;;;;3.50;2.33;;;;;;;22.67;58.83;95828.78;5094027;28;20029;-63
2022/06/09 04:48:44;;;;;;;3.58;2.58;;;;;;;22.69;59.54;95816.97;5093951;28;20044;-63
2022/06/09 04:51:12;;;;;;;3.35;2.50;;;;;;;22.78;59.47;95822.38;5093912;28;20020;-63
2022/06/09 04:53:40;;;;;;;3.28;2.33;;;;;;;22.93;58.43;95820.84;5093859;28;20478;-63
2022/06/09 04:56:06;;;;;;;4.15;2.70;;;;;;;22.95;58.26;95826.03;5093808;28;20020;-63
2022/06/09 04:58:31;;;;;;;2.72;2.45;;;;;;;23.05;58.11;95824.09;5093902;28;20032;-64
2022/06/09 05:00:57;;;;;;;3.05;2.22;;;;;;;23.16;57.36;95819.50;5093813;28;20394;-63
2022/06/09 05:03:23;;;;;;;2.75;2.33;;;;;;;23.10;57.21;95818.31;5093745;28;20035;-63
2022/06/09 05:05:50;;;;;;;4.25;2.85;;;;;;;23.01;57.60;95821.91;5093713;28;20020;-63
2022/06/09 05:08:17;;;;;;;2.92;2.63;;;;;;;22.87;57.60;95828.63;5093641;28;20024;-63
2022/06/09 05:10:45;;;;;;;5.43;2.70;;;;;;;22.78;58.23;95823.19;5093611;28;20031;-63
2022/06/09 05:13:12;;;;;;;4.70;2.67;;;;;;;22.66;58.74;95817.25;5093521;28;20044;-64
2022/06/09 05:15:56;;;;;;;2.88;2.60;;;;;;;22.54;59.19;95821.09;5093200;28;20040;-63
2022/06/09 05:18:25;;;;;;;4.00;2.95;;;;;;;22.50;59.18;95817.06;5092245;28;20428;-63
2022/06/09 05:20:53;;;;;;;5.03;3.25;;;;;;;22.46;59.26;95814.69;5093576;28;20056;-63
2022/06/09 05:23:19;;;;;;;5.68;2.90;;;;;;;22.39;59.11;95824.28;5093428;28;20030;-63
2022/06/09 05:25:49;;;;;;;2.92;2.60;;;;;;;22.45;59.95;95815.69;5093452;28;20097;-64
2022/06/09 05:28:16;;;;;;;2.80;2.60;;;;;;;22.58;61.26;95822.53;5093338;28;20773;-63
2022/06/09 05:30:42;;;;;;;3.90;2.53;;;;;;;22.70;60.66;95826.63;5093297;28;20027;-63
2022/06/09 05:33:08;;;;;;;2.60;2.40;;;;;;;22.83;59.90;95823.59;5093333;28;20107;-64
2022/06/09 05:35:35;;;;;;;3.63;2.50;;;;;;;22.84;58.76;95829.75;5093505;28;20030;-63
2022/06/09 05:46:16;;;;;;;3.28;2.75;;;;;;;23.10;56.64;95828.97;5093222;28;20184;-63
2022/06/09 05:48:43;;;;;;;2.58;2.38;;;;;;;23.50;56.64;95824.09;5093018;28;20027;-63
2022/06/09 05:51:10;;;;;;;2.85;2.22;;;;;;;24.21;57.33;95823.16;5093087;28;20024;-63
2022/06/09 05:53:36;;;;;;;7.05;2.30;;;;;;;24.99;54.26;95823.00;5093064;28;20492;-65
2022/06/09 05:56:03;;;;;;;2.67;2.13;;;;;;;25.65;52.07;95821.28;5093118;28;20103;-65
2022/06/09 05:58:29;;;;;;;3.92;2.42;;;;;;;26.34;50.49;95823.41;5093027;28;20035;-65
2022/06/09 06:00:55;;;;;;;4.75;2.03;;;;;;;26.86;48.92;95821.09;5093129;28;20028;-65
2022/06/09 06:03:20;;;;;;;2.70;2.47;;;;;;;27.09;47.95;95828.31;5093101;28;20028;-65
2022/06/09 06:08:30;;;;;;;4.57;2.78;;;;;;;27.94;47.34;95821.16;5093248;28;20089;-64
2022/06/09 06:10:56;;;;;;;2.80;2.60;;;;;;;28.19;43.60;95819.00;5093064;28;20077;-65
2022/06/09 06:13:23;;;;;;;4.10;2.60;;;;;;;28.13;43.00;95823.28;5092965;28;20493;-65
2022/06/09 06:15:49;;;;;;;2.90;2.63;;;;;;;27.88;44.17;95825.41;5092807;28;20044;-65
2022/06/09 06:18:15;;;;;;;2.60;2.30;;;;;;;27.56;44.66;95835.44;5092814;28;20036;-65
2022/06/09 06:20:41;;;;;;;3.42;2.65;;;;;;;27.45;45.59;95826.00;5092865;28;20166;-64
2022/06/09 06:23:06;;;;;;;3.58;2.85;;;;;;;27.34;46.22;95828.13;5092849;28;20028;-65
2022/06/09 06:25:32;;;;;;;3.28;2.55;;;;;;;27.56;46.84;95830.91;5092858;28;20028;-65
2022/06/09 06:27:58;;;;;;;4.32;2.92;;;;;;;27.48;47.18;95833.69;5092720;28;20085;-64
2022/06/09 06:30:24;;;;;;;3.08;2.63;;;;;;;27.25;46.26;95824.66;5092668;28;20032;-64
2022/06/09 06:32:50;;;;;;;2.83;2.60;;;;;;;27.30;45.95;95823.28;5092820;28;20077;-65
2022/06/09 06:35:17;;;;;;;3.75;2.90;;;;;;;27.35;46.98;95819.03;5092846;28;20028;-65
2022/06/09 06:37:42;;;;;;;3.85;2.50;;;;;;;27.60;46.32;95818.78;5092613;28;20028;-65
2022/06/09 06:40:13;;;;;;;6.03;2.60;;;;;;;27.98;46.63;95817.91;5092578;28;20024;-65
2022/06/09 06:42:39;;;;;;;3.47;2.70;;;;;;;28.22;44.35;95812.41;5092647;28;20512;-65
2022/06/09 06:45:06;;;;;;;7.57;3.33;;;;;;;28.16;44.66;95816.69;5092556;28;20016;-65
2022/06/09 06:47:32;;;;;;;3.03;2.00;;;;;;;28.24;45.40;95815.75;5092758;28;20085;-65
2022/06/09 06:49:57;;;;;;;2.50;2.30;;;;;;;28.48;45.13;95819.97;5092410;28;20028;-65
2022/06/09 06:52:23;;;;;;;3.92;2.30;;;;;;;28.94;42.42;95811.78;5092486;28;20080;-66
2022/06/09 06:54:49;;;;;;;3.72;2.63;;;;;;;28.95;41.12;95813.47;5093345;28;20497;-65
2022/06/09 06:57:15;;;;;;;4.78;2.80;;;;;;;28.84;43.18;95814.78;5096279;28;20054;-65
2022/06/09 06:59:41;;;;;;;2.53;2.30;;;;;;;28.86;43.89;95808.19;5096120;28;20024;-65
2022/06/09 07:02:10;;;;;;;2.58;2.38;;;;;;;29.05;43.73;95813.97;5096356;28;20162;-65
2022/06/09 07:04:35;;;;;;;3.00;2.45;;;;;;;29.43;41.98;95809.31;5095947;28;20018;-65
2022/06/09 07:07:01;;;;;;;2.67;2.47;;;;;;;29.86;40.80;95817.28;5096007;28;20024;-65
2022/06/09 07:12:49;;;;;;;2.67;2.47;;;;;;;30.36;40.23;95805.53;5095924;28;20109;-65
2022/06/09 07:15:15;;;;;;;2.30;2.10;;;;;;;30.58;39.16;95808.06;5095537;28;20466;-65
2022/06/09 07:17:41;;;;;;;6.05;2.60;;;;;;;30.77;40.06;95808.38;5095813;28;20119;-65
2022/06/09 07:20:09;;;;;;;3.95;2.70;;;;;;;30.96;38.87;95812.13;5095687;28;20099;-65
2022/06/09 07:22:35;;;;;;;3.67;2.70;;;;;;;31.22;38.84;95813.19;5095708;28;20115;-65
2022/06/09 07:25:01;;;;;;;5.22;2.42;;;;;;;31.24;38.79;95811.09;5095684;28;20051;-65
2022/06/09 07:27:26;;;;;;;3.88;2.67;;;;;;;31.43;38.16;95814.06;5095603;28;20503;-66
2022/06/09 07:29:52;;;;;;;2.70;2.50;;;;;;;31.23;36.84;95806.75;5095396;28;20398;-65
2022/06/09 07:32:18;;;;;;;4.40;2.20;;;;;;;31.06;37.62;95814.41;5095016;28;20036;-65
2022/06/09 07:34:44;;;;;;;5.72;2.63;;;;;;;30.80;38.43;95807.97;5095398;28;20386;-65
2022/06/09 07:37:10;;;;;;;4.45;3.10;;;;;;;30.35;40.30;95809.25;5095490;28;20031;-65
2022/06/09 07:39:36;;;;;;;3.97;2.88;;;;;;;29.97;40.71;95806.97;5094153;28;20027;-65
2022/06/09 07:42:03;;;;;;;7.90;3.10;;;;;;;29.70;40.77;95815.72;5095165;28;20020;-65
2022/06/09 07:44:28;;;;;;;7.25;3.20;;;;;;;29.38;42.58;95815.28;5094267;28;20119;-65
2022/06/09 07:46:54;;;;;;;3.75;3.00;;;;;;;29.24;42.43;95811.66;5095201;28;20074;-65
2022/06/09 07:49:42;;;;;;;3.58;2.80;;;;;;;29.44;42.30;95814.50;5095311;28;20518;-65
2022/06/09 07:52:08;;;;;;;5.05;2.47;;;;;;;29.69;41.61;95803.31;5095467;28;20031;-65
2022/06/09 07:54:33;;;;;;;6.00;2.70;;;;;;;29.86;41.87;95803.00;5094976;28;20099;-64
2022/06/09 07:56:59;;;;;;;4.15;2.63;;;;;;;30.17;41.15;95803.56;5095069;28;20032;-64
2022/06/09 07:59:25;;;;;;;3.90;2.65;;;;;;;30.46;40.16;95801.63;5095064;28;20377;-65
2022/06/09 08:01:51;;;;;;;4.82;2.75;;;;;;;30.54;39.72;95792.50;5094848;28;20416;-65
2022/06/09 08:04:17;;;;;;;5.45;3.00;;;;;;;30.32;39.97;95798.03;5094722;28;20054;-65
2022/06/09 08:06:43;;;;;;;4.53;3.10;;;;;;;29.75;38.90;95799.81;5094027;28;20017;-65
2022/06/09 08:09:11;;;;;;;6.97;2.92;;;;;;;29.61;41.01;95806.13;5094803;28;20020;-65
2022/06/09 08:11:38;;;;;;;4.15;3.17;;;;;;;29.86;41.60;95803.00;5094730;28;20024;-65
2022/06/09 08:14:05;;;;;;;4.78;2.78;;;;;;;29.68;39.90;95798.94;5094961;28;20028;-65
2022/06/09 08:16:33;;;;;;;3.47;3.17;;;;;;;29.15;42.10;95802.88;5094256;28;20044;-64
2022/06/09 08:18:58;;;;;;;5.45;3.35;;;;;;;28.85;42.03;95795.75;5093217;28;20449;-65
2022/06/09 08:21:26;;;;;;;7.60;3.65;;;;;;;27.99;43.09;95803.44;5094594;28;20044;-65
2022/06/09 08:23:52;;;;;;;3.45;3.15;;;;;;;27.42;45.03;95803.00;5094413;28;20507;-65
2022/06/09 08:26:19;;;;;;;5.05;3.42;;;;;;;26.85;45.70;95797.94;5094371;28;20024;-65
2022/06/09 08:28:44;;;;;;;4.05;3.63;;;;;;;26.55;45.86;95807.72;5094223;28;20022;-64
2022/06/09 08:31:10;;;;;;;4.75;3.60;;;;;;;26.18;46.23;95793.97;5094322;28;20099;-64
2022/06/09 08:33:36;;;;;;;4.85;3.65;;;;;;;26.04;48.27;95796.41;5092938;28;20462;-65
2022/06/09 08:36:02;;;;;;;3.88;3.30;;;;;;;26.24;47.39;95787.91;5094323;28;20099;-64
2022/06/09 08:38:28;;;;;;;5.45;3.17;;;;;;;26.81;47.48;95791.28;5094129;28;20389;-65
2022/06/09 08:41:27;;;;;;;6.53;3.30;;;;;;;27.08;46.83;95791.75;5094098;28;20020;-65
2022/06/09 08:43:55;;;;;;;3.55;3.25;;;;;;;27.12;46.15;95792.25;5094125;28;20462;-65
2022/06/09 08:46:38;;;;;;;3.40;3.10;;;;;;;27.47;45.54;95789.06;5094163;28;20028;-64
2022/06/09 08:49:14;;;;;;;4.30;3.38;;;;;;;27.81;44.01;95768.09;5093922;28;20020;-64
2022/06/09 08:51:48;;;;;;;4.40;3.05;;;;;;;27.84;42.96;95779.28;5094054;28;20465;-64
2022/06/09 08:54:43;;;;;;;6.05;3.33;;;;;;;27.50;42.79;95769.91;5094041;28;20016;-65
2022/06/09 08:57:17;;;;;;;3.53;3.20;;;;;;;27.03;44.10;95774.53;5076762;28;20038;-64
2022/06/09 08:59:49;;;;;;;6.35;3.17;;;;;;;26.94;43.18;95771.88;5093999;28;20028;-65
2022/06/09 09:02:40;;;;;;;5.90;3.33;;;;;;;26.96;45.28;95775.22;5094020;28;20465;-65
2022/06/09 09:05:31;;;;;;;3.17;2.85;;;;;;;27.07;43.82;95762.44;5093831;28;20060;-65
2022/06/09 09:07:59;;;;;;;4.13;3.75;;;;;;;27.07;45.03;95765.97;5093814;28;20378;-65
2022/06/09 09:10:43;;;;;;;6.18;3.72;;;;;;;26.95;44.78;95760.16;5093509;28;20028;-64
2022/06/09 09:13:40;;;;;;;6.63;4.57;;;;;;;26.79;46.74;95760.28;5093698;28;20026;-65
2022/06/09 09:16:25;;;;;;;4.35;3.95;;;;;;;26.42;45.30;95755.50;5093352;28;20120;-65
2022/06/09 09:19:00;;;;;;;4.90;4.50;;;;;;;26.25;46.19;95760.13;5093478;28;20028;-64
2022/06/09 09:21:54;;;;;;;4.85;3.97;;;;;;;25.68;47.43;95752.19;5093499;28;20044;-64
2022/06/09 09:25:01;;;;;;;4.32;3.95;;;;;;;25.24;49.74;95751.59;5093371;28;20024;-64
2022/06/09 09:27:48;;;;;;;4.13;3.72;;;;;;;25.31;48.24;95754.41;5055334;28;20506;-65
2022/06/09 09:30:34;;;;;;;6.35;4.03;;;;;;;25.32;49.04;95750.75;5093452;28;20108;-64
2022/06/09 09:33:00;;;;;;;4.80;4.20;;;;;;;25.26;49.96;95750.59;5093376;28;20028;-64
2022/06/09 09:35:40;;;;;;;4.63;4.22;;;;;;;25.45;50.36;95741.34;5093315;28;20492;-63
2022/06/09 09:38:08;;;;;;;5.25;3.92;;;;;;;25.58;48.04;95740.78;5093509;28;20048;-65
2022/06/09 09:40:46;;;;;;;5.70;4.20;;;;;;;25.71;48.05;95738.44;5093240;28;20028;-64
2022/06/09 09:43:15;;;;;;;4.95;4.03;;;;;;;25.61;49.17;95744.00;5093174;28;20028;-64
2022/06/09 09:45:51;;;;;;;10.52;4.88;;;;;;;25.20;48.16;95742.22;5093120;28;20085;-64
2022/06/09 09:48:16;;;;;;;5.93;4.88;;;;;;;25.18;49.15;95741.56;5093420;28;20023;-64
2022/06/09 09:50:56;;;;;;;5.20;4.47;;;;;;;25.18;49.51;95744.25;5093057;28;20027;-64
2022/06/09 09:53:44;;;;;;;6.50;4.45;;;;;;;24.93;49.53;95741.63;5093171;28;20031;-65
2022/06/09 09:56:16;;;;;;;6.07;4.97;;;;;;;24.89;51.49;95742.13;5093111;28;20089;-64
2022/06/09 09:58:47;;;;;;;6.57;5.13;;;;;;;25.02;52.41;95738.91;5091731;28;20393;-64
2022/06/09 10:01:22;;;;;;;5.25;4.75;;;;;;;25.06;51.89;95737.56;5093116;28;20478;-65
2022/06/09 10:09:44;;;;;;;5.82;4.63;;;;;;;25.21;51.34;95748.41;5092935;28;20096;-65
2022/06/09 10:12:16;;;;;;;5.80;5.20;;;;;;;25.22;51.42;95734.88;5093010;28;20032;-64
2022/06/09 10:14:50;;;;;;;6.75;4.75;;;;;;;25.20;49.85;95730.69;5092993;28;20039;-64
2022/06/09 10:17:32;;;;;;;5.65;4.88;;;;;;;25.23;52.32;95733.03;5092773;28;20123;-64
2022/06/09 10:20:22;;;;;;;5.45;4.93;;;;;;;25.30;52.02;95727.81;5092884;28;20509;-65
2022/06/09 10:23:25;;;;;;;6.05;5.13;;;;;;;25.23;52.98;95725.81;5092849;28;20375;-65
2022/06/09 10:26:15;;;;;;;9.05;4.80;;;;;;;25.20;51.17;95726.16;5093021;28;20085;-65
2022/06/09 10:28:55;;;;;;;5.60;5.00;;;;;;;25.07;51.27;95718.69;5092825;28;20028;-65
2022/06/09 10:31:36;;;;;;;5.55;4.95;;;;;;;24.92;50.13;95718.53;5096144;28;20036;-65
2022/06/09 10:34:13;;;;;;;;;;;;;;;24.79;51.43;95712.81;5097062;28;20036;-64
2022/06/09 10:37:07;;;;;;;5.82;5.30;;;;;;;24.80;51.90;95703.81;5096545;28;19916;-64
2022/06/09 10:39:39;;;;;;;6.30;4.80;;;;;;;24.79;50.93;95696.78;5096597;28;20024;-64
2022/06/09 10:42:25;;;;;;;7.07;5.30;;;;;;;24.79;52.09;95699.44;5096558;28;20024;-65
2022/06/09 10:45:09;;;;;;;5.95;5.25;;;;;;;24.93;50.80;95697.97;5096493;28;20020;-65
2022/06/09 10:57:20;;;;;;;7.38;5.13;;;;;;;25.12;49.90;95675.38;5096300;28;20497;-64
2022/06/09 10:59:59;;;;;;;7.00;5.40;;;;;;;24.90;49.87;95669.75;5096248;28;20111;-64
2022/06/09 11:02:31;;;;;;;5.85;5.35;;;;;;;25.24;49.80;95671.34;5096291;28;20028;-65
2022/06/09 11:04:59;;;;;;;6.75;6.10;;;;;;;25.31;50.65;95667.97;5096277;28;20020;-65
2022/06/09 11:07:49;;;;;;;6.47;5.88;;;;;;;25.42;50.77;95662.25;5094869;28;20170;-64
2022/06/09 11:10:15;;;;;;;;;;;;;;;25.15;49.28;95672.34;5096461;28;20032;-64
2022/06/09 11:13:08;;;;;;;7.03;6.00;;;;;;;25.06;50.84;95663.53;5095933;28;20019;-66
2022/06/09 11:15:40;;;;;;;13.77;6.05;;;;;;;24.98;51.29;95661.69;5095738;28;20055;-65
2022/06/09 11:18:49;;;;;;;7.45;6.38;;;;;;;24.78;50.15;95663.88;5095973;28;20102;-66
2022/06/09 11:21:20;;;;;;;6.63;5.93;;;;;;;24.86;49.12;95663.84;5082200;28;20036;-65
2022/06/09 11:24:07;;;;;;;13.25;6.22;;;;;;;24.92;50.66;95670.41;5095685;28;20032;-65
2022/06/09 11:27:00;;;;;;;7.15;6.30;;;;;;;24.93;51.24;95676.59;5095666;28;20035;-65
2022/06/09 11:29:29;;;;;;;7.35;6.50;;;;;;;24.70;50.48;95671.91;5095650;28;20025;-65
2022/06/09 11:32:13;;;;;;;7.03;6.35;;;;;;;24.50;51.54;95672.22;5095593;28;20493;-65
2022/06/09 11:35:12;;;;;;;8.30;7.50;;;;;;;24.53;51.77;95681.78;5095509;28;20154;-65
2022/06/09 11:38:06;;;;;;;6.88;6.28;;;;;;;24.39;51.48;95691.28;5095651;28;20439;-65
2022/06/09 11:40:53;;;;;;;7.28;6.65;;;;;;;24.29;51.49;95694.13;5095174;28;20035;-65
2022/06/09 11:43:46;;;;;;;5.82;5.35;;;;;;;23.96;51.74;95702.88;5094868;28;20488;-64
2022/06/09 11:46:19;;;;;;;6.60;4.03;;;;;;;23.50;52.79;95681.88;5095340;28;20047;-64
2022/06/09 11:48:52;;;;;;;4.03;3.63;;;;;;;23.04;53.56;95686.44;5095210;28;20024;-64
2022/06/09 11:51:21;;;;;;;4.10;3.70;;;;;;;22.48;55.55;95694.66;5095173;28;20525;-63
2022/06/09 11:53:57;;;;;;;6.47;4.07;;;;;;;22.04;56.29;95695.44;5095195;28;20070;-64
2022/06/09 11:57:09;;;;;;;5.53;3.35;;;;;;;21.68;57.69;95697.03;5095168;28;20379;-64
2022/06/09 11:59:55;;;;;;;4.35;3.42;;;;;;;21.27;58.50;95701.81;5094813;28;20028;-64
2022/06/09 12:02:35;;;;;;;4.15;2.88;;;;;;;20.86;58.65;95700.22;5094963;28;20032;-64
2022/06/09 12:05:18;;;;;;;5.32;2.65;;;;;;;20.61;58.42;95699.03;5095088;28;20115;-64
2022/06/09 12:07:43;;;;;;;2.75;2.40;;;;;;;20.53;58.24;95697.09;5094843;28;20107;-64
2022/06/09 12:10:31;;;;;;;3.83;2.33;;;;;;;20.46;58.05;95704.78;5094664;28;20115;-63
2022/06/09 12:13:12;;;;;;;5.05;2.75;;;;;;;20.33;57.44;95708.56;5094819;28;20119;-63
2022/06/09 12:15:51;;;;;;;3.47;2.72;;;;;;;20.19;58.86;95716.91;5094528;28;20387;-64
2022/06/09 12:18:18;;;;;;;2.65;2.40;;;;;;;20.22;59.04;95719.31;5094684;28;20028;-64
2022/06/09 12:20:47;;;;;;;2.10;2.00;;;;;;;20.24;58.01;95719.16;5094560;28;20032;-63
2022/06/09 12:23:42;;;;;;;2.17;1.98;;;;;;;20.19;57.97;95725.72;5094557;28;20482;-63
2022/06/09 12:26:11;;;;;;;1.90;1.80;;;;;;;19.99;58.28;95737.28;5094528;28;20177;-63